createdAt,value
2022-08-30T00:00:04.662Z,1016.07
2022-08-30T00:01:04.653Z,1016.11
2022-08-30T00:02:04.642Z,1016.14
2022-08-30T00:03:04.828Z,1016.13
2022-08-30T00:04:04.718Z,1016.13
2022-08-30T00:05:04.610Z,1016.12
2022-08-30T00:06:04.596Z,1016.18
2022-08-30T00:07:04.593Z,1016.13
2022-08-30T00:08:04.574Z,1016.14
2022-08-30T00:09:04.574Z,1016.19
2022-08-30T00:10:04.553Z,1016.18
2022-08-30T00:11:04.545Z,1016.17
2022-08-30T00:12:04.537Z,1016.22
2022-08-30T00:13:04.521Z,1016.23
2022-08-30T00:14:04.520Z,1016.27
2022-08-30T00:15:04.500Z,1016.23
2022-08-30T00:16:04.584Z,1016.24
2022-08-30T00:17:04.477Z,1016.29
2022-08-30T00:18:04.464Z,1016.25
2022-08-30T00:19:04.468Z,1016.23
2022-08-30T00:20:04.444Z,1016.22
2022-08-30T00:21:04.438Z,1016.23
2022-08-30T00:22:04.478Z,1016.26
2022-08-30T00:23:04.448Z,1016.26
2022-08-30T00:24:04.427Z,1016.27
2022-08-30T00:25:04.394Z,1016.29
2022-08-30T00:26:04.376Z,1016.26
2022-08-30T00:27:04.369Z,1016.27
2022-08-30T00:28:04.357Z,1016.23
2022-08-30T00:29:04.357Z,1016.28
2022-08-30T00:30:04.332Z,1016.27
2022-08-30T00:31:04.404Z,1016.29
2022-08-30T00:32:04.314Z,1016.25
2022-08-30T00:33:04.319Z,1016.28
2022-08-30T00:34:04.290Z,1016.28
2022-08-30T00:35:04.279Z,1016.29
2022-08-30T00:36:04.270Z,1016.32
2022-08-30T00:37:04.268Z,1016.35
2022-08-30T00:38:04.257Z,1016.32
2022-08-30T00:39:04.237Z,1016.32
2022-08-30T00:40:04.300Z,1016.30
2022-08-30T00:41:04.217Z,1016.34
2022-08-30T00:42:04.204Z,1016.32
2022-08-30T00:43:15.668Z,1016.29
2022-08-30T00:44:05.179Z,1016.28
2022-08-30T00:45:04.173Z,1016.27
2022-08-30T00:46:04.175Z,1016.29
2022-08-30T00:47:04.147Z,1016.29
2022-08-30T00:48:04.151Z,1016.25
2022-08-30T00:49:04.129Z,1016.28
2022-08-30T00:50:04.114Z,1016.26
2022-08-30T00:51:04.104Z,1016.24
2022-08-30T00:52:04.139Z,1016.27
2022-08-30T00:53:04.107Z,1016.27
2022-08-30T00:54:04.072Z,1016.27
2022-08-30T00:55:04.060Z,1016.27
2022-08-30T00:56:04.048Z,1016.31
2022-08-30T00:57:04.045Z,1016.30
2022-08-30T00:58:04.317Z,1016.30
2022-08-30T00:59:04.016Z,1016.29
2022-08-30T01:00:04.005Z,1016.32
2022-08-30T01:01:04.048Z,1016.31
2022-08-30T01:02:04.071Z,1016.29
2022-08-30T01:03:04.127Z,1016.32
2022-08-30T01:04:03.962Z,1016.29
2022-08-30T01:05:03.952Z,1016.33
2022-08-30T01:06:03.940Z,1016.34
2022-08-30T01:07:03.940Z,1016.33
2022-08-30T01:08:03.926Z,1016.33
2022-08-30T01:09:03.906Z,1016.35
2022-08-30T01:10:03.893Z,1016.35
2022-08-30T01:11:03.888Z,1016.40
2022-08-30T01:12:03.874Z,1016.39
2022-08-30T01:13:03.873Z,1016.40
2022-08-30T01:14:03.851Z,1016.38
2022-08-30T01:15:03.839Z,1016.37
2022-08-30T01:16:04.030Z,1016.42
2022-08-30T01:17:03.819Z,1016.40
2022-08-30T01:18:03.815Z,1016.41
2022-08-30T01:19:03.798Z,1016.40
2022-08-30T01:20:03.785Z,1016.39
2022-08-30T01:21:03.779Z,1016.38
2022-08-30T01:22:03.762Z,1016.36
2022-08-30T01:23:03.765Z,1016.36
2022-08-30T01:24:03.739Z,1016.36
2022-08-30T01:25:03.732Z,1016.35
2022-08-30T01:26:03.718Z,1016.39
2022-08-30T01:27:03.710Z,1016.39
2022-08-30T01:28:03.708Z,1016.42
2022-08-30T01:29:03.686Z,1016.40
2022-08-30T01:30:03.673Z,1016.39
2022-08-30T01:31:03.804Z,1016.40
2022-08-30T01:32:03.652Z,1016.41
2022-08-30T01:33:03.652Z,1016.40
2022-08-30T01:34:03.631Z,1016.40
2022-08-30T01:35:03.620Z,1016.39
2022-08-30T01:36:03.608Z,1016.39
2022-08-30T01:37:03.601Z,1016.37
2022-08-30T01:38:03.597Z,1016.37
2022-08-30T01:39:03.578Z,1016.38
2022-08-30T01:40:03.668Z,1016.35
2022-08-30T01:41:03.554Z,1016.37
2022-08-30T01:42:03.542Z,1016.36
2022-08-30T01:43:03.543Z,1016.35
2022-08-30T01:44:03.521Z,1016.39
2022-08-30T01:45:03.512Z,1016.37
2022-08-30T01:46:03.520Z,1016.39
2022-08-30T01:47:03.492Z,1016.42
2022-08-30T01:48:05.535Z,1016.42
2022-08-30T01:49:03.466Z,1016.40
2022-08-30T01:50:03.463Z,1016.39
2022-08-30T01:51:03.454Z,1016.38
2022-08-30T01:52:03.433Z,1016.41
2022-08-30T01:53:03.441Z,1016.37
2022-08-30T01:54:03.421Z,1016.39
2022-08-30T01:55:03.403Z,1016.38
2022-08-30T01:56:03.389Z,1016.35
2022-08-30T01:57:03.383Z,1016.37
2022-08-30T01:58:03.379Z,1016.35
2022-08-30T01:59:03.461Z,1016.31
2022-08-30T02:00:03.345Z,1016.32
2022-08-30T02:01:03.395Z,1016.31
2022-08-30T02:02:03.323Z,1016.28
2022-08-30T02:03:03.330Z,1016.29
2022-08-30T02:04:03.484Z,1016.29
2022-08-30T02:05:03.296Z,1016.31
2022-08-30T02:06:03.280Z,1016.30
2022-08-30T02:07:03.269Z,1016.33
2022-08-30T02:08:03.266Z,1016.31
2022-08-30T02:09:03.248Z,1016.33
2022-08-30T02:10:03.236Z,1016.31
2022-08-30T02:11:03.226Z,1016.34
2022-08-30T02:12:03.213Z,1016.26
2022-08-30T02:13:03.216Z,1016.25
2022-08-30T02:14:03.193Z,1016.27
2022-08-30T02:15:03.191Z,1016.25
2022-08-30T02:16:03.168Z,1016.28
2022-08-30T02:17:03.208Z,1016.24
2022-08-30T02:18:03.155Z,1016.22
2022-08-30T02:19:03.137Z,1016.25
2022-08-30T02:20:03.125Z,1016.21
2022-08-30T02:21:03.117Z,1016.22
2022-08-30T02:22:03.103Z,1016.25
2022-08-30T02:23:03.105Z,1016.22
2022-08-30T02:24:03.081Z,1016.21
2022-08-30T02:25:03.072Z,1016.24
2022-08-30T02:26:03.058Z,1016.25
2022-08-30T02:27:03.051Z,1016.23
2022-08-30T02:28:03.046Z,1016.19
2022-08-30T02:29:03.026Z,1016.20
2022-08-30T02:30:03.016Z,1016.26
2022-08-30T02:31:03.145Z,1016.23
2022-08-30T02:32:02.994Z,1016.25
2022-08-30T02:33:02.997Z,1016.21
2022-08-30T02:34:02.970Z,1016.26
2022-08-30T02:35:02.961Z,1016.22
2022-08-30T02:36:02.972Z,1016.22
2022-08-30T02:37:02.942Z,1016.19
2022-08-30T02:38:02.939Z,1016.23
2022-08-30T02:39:02.920Z,1016.23
2022-08-30T02:40:02.963Z,1016.23
2022-08-30T02:41:02.895Z,1016.21
2022-08-30T02:42:02.881Z,1016.22
2022-08-30T02:43:02.886Z,1016.21
2022-08-30T02:44:02.862Z,1016.26
2022-08-30T02:45:02.853Z,1016.26
2022-08-30T02:46:02.960Z,1016.26
2022-08-30T02:47:02.829Z,1016.30
2022-08-30T02:48:02.836Z,1016.28
2022-08-30T02:49:29.964Z,1016.31
2022-08-30T02:50:03.793Z,1016.26
2022-08-30T02:51:02.785Z,1016.31
2022-08-30T02:52:02.775Z,1016.32
2022-08-30T02:53:02.776Z,1016.29
2022-08-30T02:54:02.750Z,1016.30
2022-08-30T02:55:02.740Z,1016.23
2022-08-30T02:56:02.729Z,1016.32
2022-08-30T02:57:02.720Z,1016.27
2022-08-30T02:58:02.718Z,1016.26
2022-08-30T02:59:02.716Z,1016.30
2022-08-30T03:00:02.689Z,1016.26
2022-08-30T03:01:02.705Z,1016.26
2022-08-30T03:02:02.663Z,1016.25
2022-08-30T03:03:02.661Z,1016.25
2022-08-30T03:04:02.727Z,1016.19
2022-08-30T03:05:02.630Z,1016.20
2022-08-30T03:06:02.620Z,1016.22
2022-08-30T03:07:02.610Z,1016.22
2022-08-30T03:08:02.611Z,1016.26
2022-08-30T03:09:02.589Z,1016.24
2022-08-30T03:10:02.579Z,1016.23
2022-08-30T03:11:02.568Z,1016.24
2022-08-30T03:12:02.553Z,1016.26
2022-08-30T03:13:02.554Z,1016.26
2022-08-30T03:14:02.534Z,1016.27
2022-08-30T03:15:02.523Z,1016.28
2022-08-30T03:16:02.574Z,1016.27
2022-08-30T03:17:02.499Z,1016.23
2022-08-30T03:18:02.505Z,1016.25
2022-08-30T03:19:02.477Z,1016.22
2022-08-30T03:20:02.467Z,1016.23
2022-08-30T03:21:02.455Z,1016.25
2022-08-30T03:22:02.446Z,1016.23
2022-08-30T03:23:02.442Z,1016.24
2022-08-30T03:24:02.422Z,1016.28
2022-08-30T03:25:02.414Z,1016.27
2022-08-30T03:26:02.398Z,1016.24
2022-08-30T03:27:02.396Z,1016.27
2022-08-30T03:28:02.387Z,1016.27
2022-08-30T03:29:02.370Z,1016.25
2022-08-30T03:30:02.359Z,1016.27
2022-08-30T03:31:02.347Z,1016.20
2022-08-30T03:32:02.393Z,1016.24
2022-08-30T03:33:02.323Z,1016.29
2022-08-30T03:34:02.316Z,1016.28
2022-08-30T03:35:02.300Z,1016.31
2022-08-30T03:36:02.289Z,1016.32
2022-08-30T03:37:02.282Z,1016.26
2022-08-30T03:38:02.276Z,1016.24
2022-08-30T03:39:02.259Z,1016.32
2022-08-30T03:40:02.284Z,1016.33
2022-08-30T03:41:02.236Z,1016.27
2022-08-30T03:42:02.223Z,1016.32
2022-08-30T03:43:02.229Z,1016.28
2022-08-30T03:44:02.200Z,1016.32
2022-08-30T03:45:02.231Z,1016.32
2022-08-30T03:46:02.295Z,1016.32
2022-08-30T03:47:02.179Z,1016.37
2022-08-30T03:48:02.159Z,1016.37
2022-08-30T03:49:02.147Z,1016.38
2022-08-30T03:50:02.153Z,1016.39
2022-08-30T03:51:02.126Z,1016.39
2022-08-30T03:52:02.129Z,1016.41
2022-08-30T03:53:02.103Z,1016.39
2022-08-30T03:54:02.093Z,1016.44
2022-08-30T03:55:02.082Z,1016.45
2022-08-30T03:56:02.071Z,1016.48
2022-08-30T03:57:02.072Z,1016.44
2022-08-30T03:58:02.047Z,1016.46
2022-08-30T03:59:02.036Z,1016.43
2022-08-30T04:00:02.025Z,1016.44
2022-08-30T04:01:02.082Z,1016.43
2022-08-30T04:02:02.177Z,1016.45
2022-08-30T04:03:01.996Z,1016.44
2022-08-30T04:04:01.983Z,1016.48
2022-08-30T04:05:01.971Z,1016.45
2022-08-30T04:06:01.960Z,1016.48
2022-08-30T04:07:01.959Z,1016.47
2022-08-30T04:08:01.942Z,1016.48
2022-08-30T04:09:01.927Z,1016.47
2022-08-30T04:10:01.916Z,1016.49
2022-08-30T04:11:01.906Z,1016.46
2022-08-30T04:12:01.904Z,1016.44
2022-08-30T04:13:01.883Z,1016.43
2022-08-30T04:14:01.883Z,1016.47
2022-08-30T04:15:01.869Z,1016.45
2022-08-30T04:16:01.899Z,1016.50
2022-08-30T04:17:01.849Z,1016.47
2022-08-30T04:18:01.829Z,1016.48
2022-08-30T04:19:01.816Z,1016.51
2022-08-30T04:20:01.806Z,1016.50
2022-08-30T04:21:01.794Z,1016.52
2022-08-30T04:22:01.794Z,1016.55
2022-08-30T04:23:01.777Z,1016.52
2022-08-30T04:24:01.768Z,1016.55
2022-08-30T04:25:01.749Z,1016.56
2022-08-30T04:26:01.742Z,1016.57
2022-08-30T04:27:01.736Z,1016.54
2022-08-30T04:28:01.721Z,1016.61
2022-08-30T04:29:01.705Z,1016.61
2022-08-30T04:30:01.695Z,1016.59
2022-08-30T04:31:01.689Z,1016.62
2022-08-30T04:32:01.814Z,1016.66
2022-08-30T04:33:01.663Z,1016.64
2022-08-30T04:34:01.654Z,1016.63
2022-08-30T04:35:01.645Z,1016.59
2022-08-30T04:36:01.630Z,1016.57
2022-08-30T04:37:01.638Z,1016.59
2022-08-30T04:38:01.608Z,1016.58
2022-08-30T04:39:01.596Z,1016.59
2022-08-30T04:40:01.657Z,1016.59
2022-08-30T04:41:01.575Z,1016.58
2022-08-30T04:42:01.578Z,1016.63
2022-08-30T04:43:01.553Z,1016.65
2022-08-30T04:44:01.548Z,1016.62
2022-08-30T04:45:01.535Z,1016.62
2022-08-30T04:46:01.563Z,1016.66
2022-08-30T04:47:01.532Z,1016.69
2022-08-30T04:48:01.498Z,1016.67
2022-08-30T04:49:01.489Z,1016.71
2022-08-30T04:50:01.478Z,1016.72
2022-08-30T04:51:01.478Z,1016.70
2022-08-30T04:52:01.455Z,1016.74
2022-08-30T04:53:01.497Z,1016.76
2022-08-30T04:54:01.434Z,1016.74
2022-08-30T04:55:01.421Z,1016.71
2022-08-30T04:56:01.419Z,1016.71
2022-08-30T04:57:01.399Z,1016.70
2022-08-30T04:58:01.389Z,1016.73
2022-08-30T04:59:01.377Z,1016.74
2022-08-30T05:00:01.366Z,1016.73
2022-08-30T05:01:01.456Z,1016.73
2022-08-30T05:02:01.379Z,1016.73
2022-08-30T05:03:01.333Z,1016.73
2022-08-30T05:04:01.321Z,1016.73
2022-08-30T05:05:01.312Z,1016.76
2022-08-30T05:06:01.319Z,1016.76
2022-08-30T05:07:01.294Z,1016.74
2022-08-30T05:08:01.282Z,1016.76
2022-08-30T05:09:01.266Z,1016.81
2022-08-30T05:10:01.257Z,1016.76
2022-08-30T05:11:01.254Z,1016.78
2022-08-30T05:12:01.236Z,1016.77
2022-08-30T05:13:01.223Z,1016.72
2022-08-30T05:14:01.216Z,1016.73
2022-08-30T05:15:01.205Z,1016.72
2022-08-30T05:16:01.270Z,1016.77
2022-08-30T05:17:01.179Z,1016.77
2022-08-30T05:18:01.173Z,1016.77
2022-08-30T05:19:01.158Z,1016.79
2022-08-30T05:20:01.153Z,1016.82
2022-08-30T05:21:01.145Z,1016.79
2022-08-30T05:22:01.124Z,1016.82
2022-08-30T05:23:01.112Z,1016.86
2022-08-30T05:24:01.136Z,1016.84
2022-08-30T05:25:01.091Z,1016.84
2022-08-30T05:26:01.091Z,1016.89
2022-08-30T05:27:01.068Z,1016.92
2022-08-30T05:28:01.060Z,1016.91
2022-08-30T05:29:01.047Z,1016.94
2022-08-30T05:30:01.037Z,1016.94
2022-08-30T05:31:01.073Z,1016.89
2022-08-30T05:32:01.043Z,1016.92
2022-08-30T05:33:01.067Z,1016.90
2022-08-30T05:34:00.992Z,1016.90
2022-08-30T05:35:01.018Z,1016.91
2022-08-30T05:36:01.000Z,1016.93
2022-08-30T05:37:00.960Z,1016.93
2022-08-30T05:38:00.961Z,1016.89
2022-08-30T05:39:01.266Z,1016.91
2022-08-30T05:40:00.981Z,1016.89
2022-08-30T05:41:03.204Z,1016.86
2022-08-30T05:42:01.922Z,1016.90
2022-08-30T05:43:00.920Z,1016.93
2022-08-30T05:44:00.895Z,1016.95
2022-08-30T05:45:00.876Z,1016.95
2022-08-30T05:46:00.875Z,1016.95
2022-08-30T05:47:00.857Z,1016.96
2022-08-30T05:48:00.850Z,1016.97
2022-08-30T05:49:00.825Z,1016.97
2022-08-30T05:50:00.814Z,1016.91
2022-08-30T05:51:00.814Z,1016.93
2022-08-30T05:52:00.796Z,1016.94
2022-08-30T05:53:00.783Z,1016.95
2022-08-30T05:54:00.775Z,1016.93
2022-08-30T05:55:00.763Z,1016.96
2022-08-30T05:56:00.764Z,1016.99
2022-08-30T05:57:00.780Z,1017.02
2022-08-30T05:58:00.731Z,1016.95
2022-08-30T05:59:00.718Z,1017.01
2022-08-30T06:00:00.733Z,1016.98
2022-08-30T06:01:00.717Z,1016.97
2022-08-30T06:02:00.727Z,1017.00
2022-08-30T06:03:00.795Z,1017.01
2022-08-30T06:04:03.851Z,1017.01
2022-08-30T06:05:00.651Z,1017.00
2022-08-30T06:06:00.710Z,1016.98
2022-08-30T06:07:00.692Z,1016.97
2022-08-30T06:08:00.634Z,1017.03
2022-08-30T06:09:00.632Z,1017.02
2022-08-30T06:10:00.599Z,1017.00
2022-08-30T06:11:00.613Z,1017.01
2022-08-30T06:12:00.618Z,1016.97
2022-08-30T06:13:00.571Z,1017.01
2022-08-30T06:14:00.557Z,1017.04
2022-08-30T06:15:00.555Z,1017.03
2022-08-30T06:16:00.620Z,1017.04
2022-08-30T06:17:00.522Z,1017.06
2022-08-30T06:18:00.510Z,1017.04
2022-08-30T06:19:00.507Z,1017.04
2022-08-30T06:20:00.488Z,1017.03
2022-08-30T06:21:00.486Z,1016.99
2022-08-30T06:22:00.466Z,1017.00
2022-08-30T06:23:00.457Z,1016.99
2022-08-30T06:24:00.445Z,1016.99
2022-08-30T06:25:00.492Z,1016.98
2022-08-30T06:26:00.423Z,1016.98
2022-08-30T06:27:00.424Z,1016.97
2022-08-30T06:28:00.402Z,1017.01
2022-08-30T06:29:00.427Z,1017.01
2022-08-30T06:30:00.380Z,1017.01
2022-08-30T06:31:00.391Z,1017.03
2022-08-30T06:32:00.370Z,1017.04
2022-08-30T06:33:00.383Z,1016.99
2022-08-30T06:34:00.355Z,1016.98
2022-08-30T06:35:00.330Z,1017.05
2022-08-30T06:36:03.315Z,1017.00
2022-08-30T06:37:01.312Z,1017.02
2022-08-30T06:38:00.295Z,1017.08
2022-08-30T06:39:00.282Z,1017.08
2022-08-30T06:40:00.473Z,1017.10
2022-08-30T06:41:00.262Z,1017.11
2022-08-30T06:42:00.297Z,1017.14
2022-08-30T06:43:00.240Z,1017.14
2022-08-30T06:44:00.244Z,1017.14
2022-08-30T06:45:00.247Z,1017.13
2022-08-30T06:46:00.221Z,1017.15
2022-08-30T06:47:00.311Z,1017.16
2022-08-30T06:48:00.241Z,1017.17
2022-08-30T06:49:00.176Z,1017.12
2022-08-30T06:50:00.172Z,1017.09
2022-08-30T06:51:00.159Z,1017.10
2022-08-30T06:52:00.165Z,1017.13
2022-08-30T06:53:00.143Z,1017.10
2022-08-30T06:54:00.138Z,1017.10
2022-08-30T06:55:00.198Z,1017.15
2022-08-30T06:56:00.123Z,1017.12
2022-08-30T06:57:00.142Z,1017.17
2022-08-30T06:58:00.085Z,1017.16
2022-08-30T06:59:00.075Z,1017.20
2022-08-30T07:00:00.060Z,1017.20
2022-08-30T07:01:00.061Z,1017.22
2022-08-30T07:02:00.138Z,1017.19
2022-08-30T07:03:00.085Z,1017.19
2022-08-30T07:04:00.021Z,1017.23
2022-08-30T07:05:00.006Z,1017.24
2022-08-30T07:06:00.011Z,1017.23
2022-08-30T07:06:59.986Z,1017.19
2022-08-30T07:07:59.977Z,1017.26
2022-08-30T07:08:59.967Z,1017.25
2022-08-30T07:09:59.958Z,1017.26
2022-08-30T07:10:59.951Z,1017.24
2022-08-30T07:11:59.934Z,1017.24
2022-08-30T07:12:59.925Z,1017.21
2022-08-30T07:13:59.914Z,1017.23
2022-08-30T07:14:59.900Z,1017.23
2022-08-30T07:15:59.925Z,1017.25
2022-08-30T07:16:59.878Z,1017.25
2022-08-30T07:17:59.869Z,1017.27
2022-08-30T07:18:59.857Z,1017.27
2022-08-30T07:19:59.849Z,1017.27
2022-08-30T07:20:59.843Z,1017.27
2022-08-30T07:21:59.830Z,1017.26
2022-08-30T07:22:59.817Z,1017.28
2022-08-30T07:23:59.808Z,1017.28
2022-08-30T07:24:59.797Z,1017.26
2022-08-30T07:25:59.797Z,1017.29
2022-08-30T07:26:59.775Z,1017.29
2022-08-30T07:27:59.764Z,1017.30
2022-08-30T07:28:59.751Z,1017.27
2022-08-30T07:29:59.743Z,1017.30
2022-08-30T07:30:59.794Z,1017.32
2022-08-30T07:31:59.721Z,1017.29
2022-08-30T07:32:59.709Z,1017.28
2022-08-30T07:33:59.703Z,1017.29
2022-08-30T07:34:59.694Z,1017.29
2022-08-30T07:35:59.696Z,1017.37
2022-08-30T07:36:59.668Z,1017.38
2022-08-30T07:37:59.658Z,1017.39
2022-08-30T07:38:59.646Z,1017.37
2022-08-30T07:39:59.751Z,1017.37
2022-08-30T07:40:59.641Z,1017.43
2022-08-30T07:41:59.618Z,1017.41
2022-08-30T07:42:59.605Z,1017.40
2022-08-30T07:43:59.594Z,1017.39
2022-08-30T07:44:59.589Z,1017.38
2022-08-30T07:45:59.654Z,1017.38
2022-08-30T07:46:59.562Z,1017.39
2022-08-30T07:47:59.553Z,1017.45
2022-08-30T07:48:59.540Z,1017.43
2022-08-30T07:49:59.532Z,1017.47
2022-08-30T07:51:04.554Z,1017.47
2022-08-30T07:52:00.511Z,1017.41
2022-08-30T07:52:59.501Z,1017.50
2022-08-30T07:53:59.490Z,1017.47
2022-08-30T07:54:59.480Z,1017.50
2022-08-30T07:55:59.500Z,1017.49
2022-08-30T07:56:59.461Z,1017.49
2022-08-30T07:57:59.514Z,1017.51
2022-08-30T07:58:59.436Z,1017.52
2022-08-30T07:59:59.424Z,1017.51
2022-08-30T08:00:59.445Z,1017.49
2022-08-30T08:01:59.495Z,1017.50
2022-08-30T08:02:59.476Z,1017.52
2022-08-30T08:03:59.382Z,1017.50
2022-08-30T08:04:59.372Z,1017.52
2022-08-30T08:05:59.370Z,1017.50
2022-08-30T08:06:59.350Z,1017.49
2022-08-30T08:07:59.360Z,1017.50
2022-08-30T08:08:59.346Z,1017.51
2022-08-30T08:09:59.331Z,1017.56
2022-08-30T08:10:59.324Z,1017.54
2022-08-30T08:11:59.299Z,1017.53
2022-08-30T08:12:59.286Z,1017.53
2022-08-30T08:13:59.277Z,1017.55
2022-08-30T08:14:59.267Z,1017.50
2022-08-30T08:15:59.356Z,1017.52
2022-08-30T08:16:59.244Z,1017.56
2022-08-30T08:17:59.234Z,1017.58
2022-08-30T08:18:59.225Z,1017.56
2022-08-30T08:19:59.211Z,1017.52
2022-08-30T08:20:59.211Z,1017.54
2022-08-30T08:22:19.451Z,1017.53
2022-08-30T08:23:00.181Z,1017.53
2022-08-30T08:23:59.168Z,1017.54
2022-08-30T08:24:59.158Z,1017.52
2022-08-30T08:25:59.177Z,1017.55
2022-08-30T08:26:59.140Z,1017.57
2022-08-30T08:27:59.132Z,1017.56
2022-08-30T08:28:59.117Z,1017.54
2022-08-30T08:29:59.107Z,1017.56
2022-08-30T08:30:59.155Z,1017.62
2022-08-30T08:31:59.091Z,1017.63
2022-08-30T08:32:59.074Z,1017.61
2022-08-30T08:34:59.054Z,1017.63
2022-08-30T08:35:59.057Z,1017.64
2022-08-30T08:36:59.034Z,1017.67
2022-08-30T08:37:59.024Z,1017.70
2022-08-30T08:38:59.017Z,1017.65
2022-08-30T08:39:59.053Z,1017.67
2022-08-30T08:40:59.004Z,1017.74
2022-08-30T08:41:58.979Z,1017.73
2022-08-30T08:42:58.967Z,1017.74
2022-08-30T08:43:58.956Z,1017.73
2022-08-30T08:44:58.946Z,1017.71
2022-08-30T08:45:58.999Z,1017.72
2022-08-30T08:46:58.925Z,1017.72
2022-08-30T08:47:58.912Z,1017.71
2022-08-30T08:49:00.345Z,1017.68
2022-08-30T08:49:58.939Z,1017.67
2022-08-30T08:51:02.095Z,1017.78
2022-08-30T08:51:58.880Z,1017.66
2022-08-30T08:52:58.880Z,1017.68
2022-08-30T08:53:58.869Z,1017.74
2022-08-30T08:54:59.181Z,1017.71
2022-08-30T08:55:58.836Z,1017.70
2022-08-30T08:56:58.816Z,1017.67
2022-08-30T08:57:58.802Z,1017.76
2022-08-30T08:58:58.792Z,1017.72
2022-08-30T08:59:58.781Z,1017.77
2022-08-30T09:00:58.794Z,1017.75
2022-08-30T09:01:58.821Z,1017.76
2022-08-30T09:02:58.754Z,1017.77
2022-08-30T09:03:58.740Z,1017.79
2022-08-30T09:04:58.785Z,1017.75
2022-08-30T09:05:58.738Z,1017.71
2022-08-30T09:06:58.708Z,1017.73
2022-08-30T09:07:58.694Z,1017.73
2022-08-30T09:08:58.689Z,1017.78
2022-08-30T09:09:58.675Z,1017.74
2022-08-30T09:10:58.675Z,1017.76
2022-08-30T09:11:58.652Z,1017.73
2022-08-30T09:13:59.629Z,1017.74
2022-08-30T09:14:58.622Z,1017.75
2022-08-30T09:15:59.465Z,1017.75
2022-08-30T09:16:58.602Z,1017.73
2022-08-30T09:17:58.590Z,1017.71
2022-08-30T09:18:58.579Z,1017.75
2022-08-30T09:19:58.567Z,1017.77
2022-08-30T09:20:58.565Z,1017.75
2022-08-30T09:21:58.554Z,1017.79
2022-08-30T09:22:58.534Z,1017.77
2022-08-30T09:23:58.526Z,1017.76
2022-08-30T09:24:58.515Z,1017.74
2022-08-30T09:25:58.510Z,1017.82
2022-08-30T09:26:58.493Z,1017.75
2022-08-30T09:27:58.483Z,1017.74
2022-08-30T09:28:58.472Z,1017.76
2022-08-30T09:29:58.461Z,1017.76
2022-08-30T09:30:58.504Z,1017.73
2022-08-30T09:32:22.486Z,1017.79
2022-08-30T09:32:59.445Z,1017.79
2022-08-30T09:33:58.415Z,1017.81
2022-08-30T09:34:58.407Z,1017.80
2022-08-30T09:35:58.401Z,1017.81
2022-08-30T09:36:58.387Z,1017.83
2022-08-30T09:37:58.374Z,1017.79
2022-08-30T09:38:58.362Z,1017.87
2022-08-30T09:39:58.410Z,1017.85
2022-08-30T09:40:58.354Z,1017.84
2022-08-30T09:41:58.328Z,1017.86
2022-08-30T09:42:58.320Z,1017.84
2022-08-30T09:43:58.326Z,1017.83
2022-08-30T09:44:58.297Z,1017.83
2022-08-30T09:45:58.319Z,1017.91
2022-08-30T09:46:58.274Z,1017.87
2022-08-30T09:47:58.262Z,1017.83
2022-08-30T09:48:58.252Z,1017.83
2022-08-30T09:49:58.242Z,1017.89
2022-08-30T09:50:58.242Z,1017.81
2022-08-30T09:51:58.218Z,1017.83
2022-08-30T09:52:58.208Z,1017.85
2022-08-30T09:54:17.255Z,1017.84
2022-08-30T09:54:59.184Z,1017.87
2022-08-30T09:55:58.181Z,1017.87
2022-08-30T09:56:58.174Z,1017.80
2022-08-30T09:57:58.148Z,1017.85
2022-08-30T09:58:58.140Z,1017.82
2022-08-30T09:59:58.128Z,1017.80
2022-08-30T10:00:58.150Z,1017.81
2022-08-30T10:01:58.128Z,1017.83
2022-08-30T10:02:58.099Z,1017.85
2022-08-30T10:03:58.081Z,1017.81
2022-08-30T10:04:58.074Z,1017.87
2022-08-30T10:05:58.070Z,1017.89
2022-08-30T10:06:58.053Z,1017.90
2022-08-30T10:07:58.036Z,1017.89
2022-08-30T10:08:58.027Z,1017.90
2022-08-30T10:09:58.015Z,1017.90
2022-08-30T10:10:58.017Z,1017.88
2022-08-30T10:11:58.026Z,1017.84
2022-08-30T10:12:57.983Z,1017.88
2022-08-30T10:13:57.970Z,1017.81
2022-08-30T10:14:57.961Z,1017.78
2022-08-30T10:15:57.963Z,1017.79
2022-08-30T10:16:57.942Z,1017.78
2022-08-30T10:17:57.924Z,1017.78
2022-08-30T10:18:57.919Z,1017.78
2022-08-30T10:19:57.905Z,1017.78
2022-08-30T10:20:57.904Z,1017.78
2022-08-30T10:21:57.879Z,1017.83
2022-08-30T10:22:58.846Z,1017.81
2022-08-30T10:23:57.857Z,1017.86
2022-08-30T10:24:57.851Z,1017.90
2022-08-30T10:25:57.872Z,1017.92
2022-08-30T10:26:57.827Z,1017.85
2022-08-30T10:27:57.815Z,1017.83
2022-08-30T10:28:57.803Z,1017.74
2022-08-30T10:29:57.791Z,1017.65
2022-08-30T10:30:57.789Z,1017.67
2022-08-30T10:31:57.768Z,1017.72
2022-08-30T10:32:57.758Z,1017.72
2022-08-30T10:33:57.749Z,1017.76
2022-08-30T10:34:57.737Z,1017.74
2022-08-30T10:35:57.735Z,1017.74
2022-08-30T10:36:57.717Z,1017.73
2022-08-30T10:37:57.705Z,1017.80
2022-08-30T10:38:57.696Z,1017.72
2022-08-30T10:39:57.683Z,1017.72
2022-08-30T10:40:57.696Z,1017.75
2022-08-30T10:41:57.660Z,1017.74
2022-08-30T10:42:57.652Z,1017.71
2022-08-30T10:43:57.640Z,1017.71
2022-08-30T10:44:57.632Z,1017.68
2022-08-30T10:45:57.647Z,1017.68
2022-08-30T10:46:57.608Z,1017.74
2022-08-30T10:47:57.596Z,1017.71
2022-08-30T10:48:57.587Z,1017.65
2022-08-30T10:49:57.577Z,1017.66
2022-08-30T10:50:57.621Z,1017.66
2022-08-30T10:51:58.917Z,1017.64
2022-08-30T10:52:57.544Z,1017.65
2022-08-30T10:53:57.590Z,1017.67
2022-08-30T10:54:57.521Z,1017.67
2022-08-30T10:55:57.524Z,1017.65
2022-08-30T10:56:57.503Z,1017.68
2022-08-30T10:57:57.500Z,1017.69
2022-08-30T10:58:57.477Z,1017.67
2022-08-30T10:59:57.468Z,1017.64
2022-08-30T11:00:57.484Z,1017.64
2022-08-30T11:01:57.446Z,1017.63
2022-08-30T11:02:57.435Z,1017.70
2022-08-30T11:03:57.429Z,1017.67
2022-08-30T11:04:57.411Z,1017.69
2022-08-30T11:05:57.415Z,1017.69
2022-08-30T11:06:57.390Z,1017.69
2022-08-30T11:07:57.381Z,1017.69
2022-08-30T11:08:57.456Z,1017.66
2022-08-30T11:09:57.359Z,1017.69
2022-08-30T11:10:57.361Z,1017.67
2022-08-30T11:11:57.441Z,1017.64
2022-08-30T11:12:57.324Z,1017.61
2022-08-30T11:13:59.456Z,1017.57
2022-08-30T11:14:58.303Z,1017.55
2022-08-30T11:15:57.433Z,1017.54
2022-08-30T11:16:57.281Z,1017.56
2022-08-30T11:17:57.271Z,1017.54
2022-08-30T11:18:57.290Z,1017.54
2022-08-30T11:19:57.254Z,1017.53
2022-08-30T11:20:57.254Z,1017.57
2022-08-30T11:21:57.231Z,1017.56
2022-08-30T11:22:57.215Z,1017.58
2022-08-30T11:23:57.210Z,1017.56
2022-08-30T11:24:57.193Z,1017.56
2022-08-30T11:25:58.171Z,1017.58
2022-08-30T11:26:57.173Z,1017.55
2022-08-30T11:27:57.161Z,1017.51
2022-08-30T11:28:57.148Z,1017.50
2022-08-30T11:29:57.140Z,1017.47
2022-08-30T11:30:57.136Z,1017.48
2022-08-30T11:31:57.118Z,1017.45
2022-08-30T11:32:57.113Z,1017.42
2022-08-30T11:33:57.096Z,1017.42
2022-08-30T11:34:57.084Z,1017.38
2022-08-30T11:35:57.097Z,1017.43
2022-08-30T11:36:57.062Z,1017.38
2022-08-30T11:37:57.057Z,1017.37
2022-08-30T11:38:57.041Z,1017.39
2022-08-30T11:39:57.115Z,1017.41
2022-08-30T11:40:57.055Z,1017.39
2022-08-30T11:41:57.011Z,1017.36
2022-08-30T11:42:56.996Z,1017.37
2022-08-30T11:43:56.986Z,1017.34
2022-08-30T11:44:56.973Z,1017.35
2022-08-30T11:45:57.056Z,1017.33
2022-08-30T11:46:56.953Z,1017.29
2022-08-30T11:47:56.945Z,1017.29
2022-08-30T11:48:56.930Z,1017.26
2022-08-30T11:49:56.922Z,1017.24
2022-08-30T11:50:56.919Z,1017.22
2022-08-30T11:52:26.295Z,1017.26
2022-08-30T11:52:57.886Z,1017.20
2022-08-30T11:53:56.877Z,1017.21
2022-08-30T11:54:56.865Z,1017.21
2022-08-30T11:55:56.864Z,1017.22
2022-08-30T11:56:56.844Z,1017.21
2022-08-30T11:57:56.835Z,1017.21
2022-08-30T11:58:56.821Z,1017.15
2022-08-30T11:59:56.812Z,1017.12
2022-08-30T12:00:56.807Z,1017.11
2022-08-30T12:01:56.893Z,1017.14
2022-08-30T12:02:59.080Z,1017.15
2022-08-30T12:03:56.770Z,1017.14
2022-08-30T12:04:56.758Z,1017.10
2022-08-30T12:05:57.451Z,1017.13
2022-08-30T12:06:56.751Z,1017.14